sensor_id;sensor_type;location;lat;lon;timestamp;temperature;humidity
12268;DHT22;6196;48.398;11.736;2023-12-29T00:00:50;8.00;99.90
12268;DHT22;6196;48.398;11.736;2023-12-29T00:03:17;7.80;99.90
12268;DHT22;6196;48.398;11.736;2023-12-29T00:05:44;7.80;99.90
12268;DHT22;6196;48.398;11.736;2023-12-29T00:08:10;7.90;99.90
12268;DHT22;6196;48.398;11.736;2023-12-29T00:10:37;7.80;99.90
12268;DHT22;6196;48.398;11.736;2023-12-29T00:13:04;7.80;99.90
12268;DHT22;6196;48.398;11.736;2023-12-29T00:15:31;7.80;99.90
12268;DHT22;6196;48.398;11.736;2023-12-29T00:17:58;7.90;99.90
12268;DHT22;6196;48.398;11.736;2023-12-29T00:20:26;7.70;99.90
12268;DHT22;6196;48.398;11.736;2023-12-29T00:23:06;7.70;99.90
12268;DHT22;6196;48.398;11.736;2023-12-29T00:25:36;7.70;99.90
12268;DHT22;6196;48.398;11.736;2023-12-29T00:28:04;7.60;99.90
12268;DHT22;6196;48.398;11.736;2023-12-29T00:30:31;7.60;99.90
12268;DHT22;6196;48.398;11.736;2023-12-29T00:33:18;7.60;99.90
12268;DHT22;6196;48.398;11.736;2023-12-29T00:35:46;7.40;99.90
12268;DHT22;6196;48.398;11.736;2023-12-29T00:38:13;7.40;99.90
12268;DHT22;6196;48.398;11.736;2023-12-29T00:40:40;7.30;99.90
12268;DHT22;6196;48.398;11.736;2023-12-29T00:43:06;7.30;99.90
12268;DHT22;6196;48.398;11.736;2023-12-29T00:45:34;7.10;99.90
12268;DHT22;6196;48.398;11.736;2023-12-29T00:48:03;7.10;99.90
12268;DHT22;6196;48.398;11.736;2023-12-29T00:50:30;7.00;99.90
12268;DHT22;6196;48.398;11.736;2023-12-29T00:52:57;6.90;99.90
12268;DHT22;6196;48.398;11.736;2023-12-29T00:55:24;6.80;99.90
12268;DHT22;6196;48.398;11.736;2023-12-29T00:57:51;6.90;99.90
12268;DHT22;6196;48.398;11.736;2023-12-29T01:00:18;6.70;99.90
12268;DHT22;6196;48.398;11.736;2023-12-29T01:02:45;6.70;99.90
12268;DHT22;6196;48.398;11.736;2023-12-29T01:05:16;6.70;99.90
12268;DHT22;6196;48.398;11.736;2023-12-29T01:07:46;6.60;99.90
12268;DHT22;6196;48.398;11.736;2023-12-29T01:10:13;6.60;99.90
12268;DHT22;6196;48.398;11.736;2023-12-29T01:12:40;6.40;99.90
12268;DHT22;6196;48.398;11.736;2023-12-29T01:15:07;6.40;99.90
12268;DHT22;6196;48.398;11.736;2023-12-29T01:17:35;6.30;99.90
12268;DHT22;6196;48.398;11.736;2023-12-29T01:20:02;6.20;99.90
12268;DHT22;6196;48.398;11.736;2023-12-29T01:22:32;6.20;99.90
12268;DHT22;6196;48.398;11.736;2023-12-29T01:24:59;6.10;99.90
12268;DHT22;6196;48.398;11.736;2023-12-29T01:27:28;6.00;99.90
12268;DHT22;6196;48.398;11.736;2023-12-29T01:29:56;5.90;99.90
12268;DHT22;6196;48.398;11.736;2023-12-29T01:32:23;5.80;99.90
12268;DHT22;6196;48.398;11.736;2023-12-29T01:34:50;5.90;99.90
12268;DHT22;6196;48.398;11.736;2023-12-29T01:37:18;5.80;99.90
12268;DHT22;6196;48.398;11.736;2023-12-29T01:39:45;5.70;99.90
12268;DHT22;6196;48.398;11.736;2023-12-29T01:42:12;5.70;99.90
12268;DHT22;6196;48.398;11.736;2023-12-29T01:44:39;5.70;99.90
12268;DHT22;6196;48.398;11.736;2023-12-29T01:47:13;5.60;99.90
12268;DHT22;6196;48.398;11.736;2023-12-29T01:49:44;5.60;99.90
12268;DHT22;6196;48.398;11.736;2023-12-29T01:52:14;5.50;99.90
12268;DHT22;6196;48.398;11.736;2023-12-29T01:54:41;5.40;99.90
12268;DHT22;6196;48.398;11.736;2023-12-29T01:57:10;5.30;99.90
12268;DHT22;6196;48.398;11.736;2023-12-29T01:59:37;5.20;99.90
12268;DHT22;6196;48.398;11.736;2023-12-29T02:02:05;5.20;99.90
12268;DHT22;6196;48.398;11.736;2023-12-29T02:04:32;5.20;99.90
12268;DHT22;6196;48.398;11.736;2023-12-29T02:07:00;5.20;99.90
12268;DHT22;6196;48.398;11.736;2023-12-29T02:09:27;5.20;99.90
12268;DHT22;6196;48.398;11.736;2023-12-29T02:11:54;5.10;99.90
12268;DHT22;6196;48.398;11.736;2023-12-29T02:14:21;5.10;99.90
12268;DHT22;6196;48.398;11.736;2023-12-29T02:17:00;5.10;99.90
12268;DHT22;6196;48.398;11.736;2023-12-29T02:19:39;5.10;99.90
12268;DHT22;6196;48.398;11.736;2023-12-29T02:22:08;5.10;99.90
12268;DHT22;6196;48.398;11.736;2023-12-29T02:24:36;5.00;99.90
12268;DHT22;6196;48.398;11.736;2023-12-29T02:27:18;4.90;99.90
12268;DHT22;6196;48.398;11.736;2023-12-29T02:32:54;4.70;99.90
12268;DHT22;6196;48.398;11.736;2023-12-29T02:35:25;4.60;99.90
12268;DHT22;6196;48.398;11.736;2023-12-29T02:37:54;4.60;99.90
12268;DHT22;6196;48.398;11.736;2023-12-29T02:40:22;4.50;99.90
12268;DHT22;6196;48.398;11.736;2023-12-29T02:42:49;4.60;99.90
12268;DHT22;6196;48.398;11.736;2023-12-29T02:45:17;4.60;99.90
12268;DHT22;6196;48.398;11.736;2023-12-29T02:47:44;4.60;99.90
12268;DHT22;6196;48.398;11.736;2023-12-29T02:50:11;4.70;99.90
12268;DHT22;6196;48.398;11.736;2023-12-29T02:52:38;4.80;99.90
12268;DHT22;6196;48.398;11.736;2023-12-29T02:55:06;4.80;99.90
12268;DHT22;6196;48.398;11.736;2023-12-29T02:57:33;4.90;99.90
12268;DHT22;6196;48.398;11.736;2023-12-29T03:00:00;5.00;99.90
12268;DHT22;6196;48.398;11.736;2023-12-29T03:02:27;5.00;99.90
12268;DHT22;6196;48.398;11.736;2023-12-29T03:04:54;5.10;99.90
12268;DHT22;6196;48.398;11.736;2023-12-29T03:07:21;5.10;99.90
12268;DHT22;6196;48.398;11.736;2023-12-29T03:09:48;5.20;99.90
12268;DHT22;6196;48.398;11.736;2023-12-29T03:12:15;5.20;99.90
12268;DHT22;6196;48.398;11.736;2023-12-29T03:14:42;5.30;99.90
12268;DHT22;6196;48.398;11.736;2023-12-29T03:17:11;5.30;99.90
12268;DHT22;6196;48.398;11.736;2023-12-29T03:19:38;5.30;99.90
12268;DHT22;6196;48.398;11.736;2023-12-29T03:22:05;5.20;99.90
12268;DHT22;6196;48.398;11.736;2023-12-29T03:24:32;5.10;99.90
12268;DHT22;6196;48.398;11.736;2023-12-29T03:26:59;5.00;99.90
12268;DHT22;6196;48.398;11.736;2023-12-29T03:29:26;4.90;99.90
12268;DHT22;6196;48.398;11.736;2023-12-29T03:31:53;4.90;99.90
12268;DHT22;6196;48.398;11.736;2023-12-29T03:34:20;4.80;99.90
12268;DHT22;6196;48.398;11.736;2023-12-29T03:36:47;5.20;99.90
12268;DHT22;6196;48.398;11.736;2023-12-29T03:39:14;4.70;99.90
12268;DHT22;6196;48.398;11.736;2023-12-29T03:41:41;4.60;99.90
12268;DHT22;6196;48.398;11.736;2023-12-29T03:44:08;4.60;99.90
12268;DHT22;6196;48.398;11.736;2023-12-29T03:46:36;4.40;99.90
12268;DHT22;6196;48.398;11.736;2023-12-29T03:49:03;4.40;99.90
12268;DHT22;6196;48.398;11.736;2023-12-29T03:51:30;4.30;99.90
12268;DHT22;6196;48.398;11.736;2023-12-29T03:53:58;4.30;99.90
12268;DHT22;6196;48.398;11.736;2023-12-29T03:56:25;4.30;99.90
12268;DHT22;6196;48.398;11.736;2023-12-29T03:58:52;4.30;99.90
12268;DHT22;6196;48.398;11.736;2023-12-29T04:01:19;4.30;99.90
12268;DHT22;6196;48.398;11.736;2023-12-29T04:03:50;4.30;99.90
12268;DHT22;6196;48.398;11.736;2023-12-29T04:06:17;4.30;99.90
12268;DHT22;6196;48.398;11.736;2023-12-29T04:08:44;4.40;99.90
12268;DHT22;6196;48.398;11.736;2023-12-29T04:11:11;4.50;99.90
12268;DHT22;6196;48.398;11.736;2023-12-29T04:13:38;4.60;99.90
12268;DHT22;6196;48.398;11.736;2023-12-29T04:16:05;4.50;99.90
12268;DHT22;6196;48.398;11.736;2023-12-29T04:18:32;4.50;99.90
12268;DHT22;6196;48.398;11.736;2023-12-29T04:20:59;4.60;99.90
12268;DHT22;6196;48.398;11.736;2023-12-29T04:23:26;4.60;99.90
12268;DHT22;6196;48.398;11.736;2023-12-29T04:25:53;4.70;99.90
12268;DHT22;6196;48.398;11.736;2023-12-29T04:28:20;4.70;99.90
12268;DHT22;6196;48.398;11.736;2023-12-29T04:30:47;4.80;99.90
12268;DHT22;6196;48.398;11.736;2023-12-29T04:33:14;4.90;99.90
12268;DHT22;6196;48.398;11.736;2023-12-29T04:35:41;5.00;99.90
12268;DHT22;6196;48.398;11.736;2023-12-29T04:38:08;5.00;99.90
12268;DHT22;6196;48.398;11.736;2023-12-29T04:40:36;5.10;99.90
12268;DHT22;6196;48.398;11.736;2023-12-29T04:43:03;5.20;99.90
12268;DHT22;6196;48.398;11.736;2023-12-29T04:45:30;5.20;99.90
12268;DHT22;6196;48.398;11.736;2023-12-29T04:47:57;5.30;99.90
12268;DHT22;6196;48.398;11.736;2023-12-29T04:50:24;5.30;99.90
12268;DHT22;6196;48.398;11.736;2023-12-29T04:52:51;5.40;99.90
12268;DHT22;6196;48.398;11.736;2023-12-29T04:55:18;5.40;99.90
12268;DHT22;6196;48.398;11.736;2023-12-29T04:57:45;5.40;99.90
12268;DHT22;6196;48.398;11.736;2023-12-29T05:00:13;5.40;99.90
12268;DHT22;6196;48.398;11.736;2023-12-29T05:02:40;5.50;99.90
12268;DHT22;6196;48.398;11.736;2023-12-29T05:05:07;5.50;99.90
12268;DHT22;6196;48.398;11.736;2023-12-29T05:07:34;5.50;99.90
12268;DHT22;6196;48.398;11.736;2023-12-29T05:10:02;5.60;99.90
12268;DHT22;6196;48.398;11.736;2023-12-29T05:12:30;5.60;99.90
12268;DHT22;6196;48.398;11.736;2023-12-29T05:14:56;5.50;99.90
12268;DHT22;6196;48.398;11.736;2023-12-29T05:17:23;5.50;99.90
12268;DHT22;6196;48.398;11.736;2023-12-29T05:19:50;5.50;99.90
12268;DHT22;6196;48.398;11.736;2023-12-29T05:22:17;5.60;99.90
12268;DHT22;6196;48.398;11.736;2023-12-29T05:24:44;5.60;99.90
12268;DHT22;6196;48.398;11.736;2023-12-29T05:27:12;5.60;99.90
12268;DHT22;6196;48.398;11.736;2023-12-29T05:29:39;5.60;99.90
12268;DHT22;6196;48.398;11.736;2023-12-29T05:32:06;5.70;99.90
12268;DHT22;6196;48.398;11.736;2023-12-29T05:34:34;5.70;99.90
12268;DHT22;6196;48.398;11.736;2023-12-29T05:37:02;5.70;99.90
12268;DHT22;6196;48.398;11.736;2023-12-29T05:39:29;5.80;99.90
12268;DHT22;6196;48.398;11.736;2023-12-29T05:41:56;5.90;99.90
12268;DHT22;6196;48.398;11.736;2023-12-29T05:44:23;6.00;99.90
12268;DHT22;6196;48.398;11.736;2023-12-29T05:46:50;6.10;99.90
12268;DHT22;6196;48.398;11.736;2023-12-29T05:49:17;6.10;99.90
12268;DHT22;6196;48.398;11.736;2023-12-29T05:51:45;6.30;99.90
12268;DHT22;6196;48.398;11.736;2023-12-29T05:54:12;6.40;99.90
12268;DHT22;6196;48.398;11.736;2023-12-29T05:56:39;6.60;99.90
12268;DHT22;6196;48.398;11.736;2023-12-29T05:59:06;6.70;99.90
12268;DHT22;6196;48.398;11.736;2023-12-29T06:01:33;6.80;99.90
12268;DHT22;6196;48.398;11.736;2023-12-29T06:04:00;7.00;99.90
12268;DHT22;6196;48.398;11.736;2023-12-29T06:06:27;7.10;99.90
12268;DHT22;6196;48.398;11.736;2023-12-29T06:08:54;7.10;99.90
12268;DHT22;6196;48.398;11.736;2023-12-29T06:11:21;7.20;99.90
12268;DHT22;6196;48.398;11.736;2023-12-29T06:13:48;7.20;99.90
12268;DHT22;6196;48.398;11.736;2023-12-29T06:16:21;7.30;99.90
12268;DHT22;6196;48.398;11.736;2023-12-29T06:18:48;7.30;99.90
12268;DHT22;6196;48.398;11.736;2023-12-29T06:21:16;7.40;99.90
12268;DHT22;6196;48.398;11.736;2023-12-29T06:23:43;7.50;99.90
12268;DHT22;6196;48.398;11.736;2023-12-29T06:26:17;7.60;99.90
12268;DHT22;6196;48.398;11.736;2023-12-29T06:28:46;7.60;99.90
12268;DHT22;6196;48.398;11.736;2023-12-29T06:31:13;7.70;99.90
12268;DHT22;6196;48.398;11.736;2023-12-29T06:33:44;7.70;99.90
12268;DHT22;6196;48.398;11.736;2023-12-29T06:36:12;7.80;99.90
12268;DHT22;6196;48.398;11.736;2023-12-29T06:38:39;7.90;99.90
12268;DHT22;6196;48.398;11.736;2023-12-29T06:41:06;7.90;99.90
12268;DHT22;6196;48.398;11.736;2023-12-29T06:43:33;7.90;99.90
12268;DHT22;6196;48.398;11.736;2023-12-29T06:46:00;7.90;99.90
12268;DHT22;6196;48.398;11.736;2023-12-29T06:48:27;7.90;99.90
12268;DHT22;6196;48.398;11.736;2023-12-29T06:50:55;8.00;99.90
12268;DHT22;6196;48.398;11.736;2023-12-29T06:53:22;8.10;99.90
12268;DHT22;6196;48.398;11.736;2023-12-29T06:55:49;8.10;99.90
12268;DHT22;6196;48.398;11.736;2023-12-29T06:58:16;8.20;99.90
12268;DHT22;6196;48.398;11.736;2023-12-29T07:00:43;8.30;99.90
12268;DHT22;6196;48.398;11.736;2023-12-29T07:03:14;8.30;99.90
12268;DHT22;6196;48.398;11.736;2023-12-29T07:05:42;8.40;99.90
12268;DHT22;6196;48.398;11.736;2023-12-29T07:08:12;8.40;99.90
12268;DHT22;6196;48.398;11.736;2023-12-29T07:10:40;8.50;99.90
12268;DHT22;6196;48.398;11.736;2023-12-29T07:13:06;8.50;99.90
12268;DHT22;6196;48.398;11.736;2023-12-29T07:15:34;8.50;99.90
12268;DHT22;6196;48.398;11.736;2023-12-29T07:18:00;8.60;99.90
12268;DHT22;6196;48.398;11.736;2023-12-29T07:20:28;8.60;99.90
12268;DHT22;6196;48.398;11.736;2023-12-29T07:22:55;8.70;99.90
12268;DHT22;6196;48.398;11.736;2023-12-29T07:25:22;8.70;99.90
12268;DHT22;6196;48.398;11.736;2023-12-29T07:27:49;8.70;99.90
12268;DHT22;6196;48.398;11.736;2023-12-29T07:30:16;8.80;99.90
12268;DHT22;6196;48.398;11.736;2023-12-29T07:32:43;8.80;99.90
12268;DHT22;6196;48.398;11.736;2023-12-29T07:35:10;8.90;99.90
12268;DHT22;6196;48.398;11.736;2023-12-29T07:37:38;8.90;99.90
12268;DHT22;6196;48.398;11.736;2023-12-29T07:40:05;8.90;99.90
12268;DHT22;6196;48.398;11.736;2023-12-29T07:42:34;8.90;99.90
12268;DHT22;6196;48.398;11.736;2023-12-29T07:45:01;8.90;99.90
12268;DHT22;6196;48.398;11.736;2023-12-29T07:47:28;9.00;99.90
12268;DHT22;6196;48.398;11.736;2023-12-29T07:49:55;9.00;99.90
12268;DHT22;6196;48.398;11.736;2023-12-29T07:52:23;9.00;99.90
12268;DHT22;6196;48.398;11.736;2023-12-29T07:54:50;9.00;99.90
12268;DHT22;6196;48.398;11.736;2023-12-29T07:57:16;8.90;99.90
12268;DHT22;6196;48.398;11.736;2023-12-29T07:59:43;8.90;99.90
12268;DHT22;6196;48.398;11.736;2023-12-29T08:02:10;8.90;99.90
12268;DHT22;6196;48.398;11.736;2023-12-29T08:04:37;8.90;99.90
12268;DHT22;6196;48.398;11.736;2023-12-29T08:07:05;9.00;99.90
12268;DHT22;6196;48.398;11.736;2023-12-29T08:09:32;9.00;99.90
12268;DHT22;6196;48.398;11.736;2023-12-29T08:11:59;9.00;99.90
12268;DHT22;6196;48.398;11.736;2023-12-29T08:14:27;9.00;99.90
12268;DHT22;6196;48.398;11.736;2023-12-29T08:16:55;9.10;99.90
12268;DHT22;6196;48.398;11.736;2023-12-29T08:19:23;9.10;99.90
12268;DHT22;6196;48.398;11.736;2023-12-29T08:21:51;9.10;99.90
12268;DHT22;6196;48.398;11.736;2023-12-29T08:24:18;9.10;99.90
12268;DHT22;6196;48.398;11.736;2023-12-29T08:26:47;9.30;99.90
12268;DHT22;6196;48.398;11.736;2023-12-29T08:29:15;9.40;99.90
12268;DHT22;6196;48.398;11.736;2023-12-29T08:31:42;9.40;99.90
12268;DHT22;6196;48.398;11.736;2023-12-29T08:34:11;9.60;99.90
12268;DHT22;6196;48.398;11.736;2023-12-29T08:36:38;9.40;99.90
12268;DHT22;6196;48.398;11.736;2023-12-29T08:39:05;9.50;99.90
12268;DHT22;6196;48.398;11.736;2023-12-29T08:41:32;9.60;99.90
12268;DHT22;6196;48.398;11.736;2023-12-29T08:43:59;9.90;99.90
12268;DHT22;6196;48.398;11.736;2023-12-29T08:46:26;10.10;99.90
12268;DHT22;6196;48.398;11.736;2023-12-29T08:48:53;10.30;99.90
12268;DHT22;6196;48.398;11.736;2023-12-29T08:51:20;10.60;99.90
12268;DHT22;6196;48.398;11.736;2023-12-29T08:53:47;11.20;99.90
12268;DHT22;6196;48.398;11.736;2023-12-29T08:56:14;11.50;99.90
12268;DHT22;6196;48.398;11.736;2023-12-29T08:58:41;11.50;99.90
12268;DHT22;6196;48.398;11.736;2023-12-29T09:01:08;11.70;99.90
12268;DHT22;6196;48.398;11.736;2023-12-29T09:03:35;11.60;99.90
12268;DHT22;6196;48.398;11.736;2023-12-29T09:06:03;12.10;99.90
12268;DHT22;6196;48.398;11.736;2023-12-29T09:08:30;12.00;99.90
12268;DHT22;6196;48.398;11.736;2023-12-29T09:10:57;12.00;99.90
12268;DHT22;6196;48.398;11.736;2023-12-29T09:13:24;12.00;99.90
12268;DHT22;6196;48.398;11.736;2023-12-29T09:15:56;12.20;99.90
12268;DHT22;6196;48.398;11.736;2023-12-29T09:18:24;12.10;99.90
12268;DHT22;6196;48.398;11.736;2023-12-29T09:20:51;12.20;99.90
12268;DHT22;6196;48.398;11.736;2023-12-29T09:23:18;12.10;99.90
12268;DHT22;6196;48.398;11.736;2023-12-29T09:25:45;11.90;99.90
12268;DHT22;6196;48.398;11.736;2023-12-29T09:28:13;11.80;99.90
12268;DHT22;6196;48.398;11.736;2023-12-29T09:30:40;11.30;99.90
12268;DHT22;6196;48.398;11.736;2023-12-29T09:33:07;11.00;99.90
12268;DHT22;6196;48.398;11.736;2023-12-29T09:35:37;10.90;99.90
12268;DHT22;6196;48.398;11.736;2023-12-29T09:38:04;10.60;99.90
12268;DHT22;6196;48.398;11.736;2023-12-29T09:40:32;10.70;99.90
12268;DHT22;6196;48.398;11.736;2023-12-29T09:43:01;10.90;99.90
12268;DHT22;6196;48.398;11.736;2023-12-29T09:45:30;10.80;99.90
12268;DHT22;6196;48.398;11.736;2023-12-29T09:48:01;10.70;99.90
12268;DHT22;6196;48.398;11.736;2023-12-29T09:50:30;10.70;99.90
12268;DHT22;6196;48.398;11.736;2023-12-29T09:52:59;10.90;99.90
12268;DHT22;6196;48.398;11.736;2023-12-29T09:55:27;11.00;99.90
12268;DHT22;6196;48.398;11.736;2023-12-29T09:57:55;11.20;99.90
12268;DHT22;6196;48.398;11.736;2023-12-29T10:00:22;11.50;99.90
12268;DHT22;6196;48.398;11.736;2023-12-29T10:02:51;11.20;99.90
12268;DHT22;6196;48.398;11.736;2023-12-29T10:05:20;11.30;99.90
12268;DHT22;6196;48.398;11.736;2023-12-29T10:07:47;11.50;99.90
12268;DHT22;6196;48.398;11.736;2023-12-29T10:10:15;11.50;99.90
12268;DHT22;6196;48.398;11.736;2023-12-29T10:12:44;11.70;99.90
12268;DHT22;6196;48.398;11.736;2023-12-29T10:15:21;11.20;99.90
12268;DHT22;6196;48.398;11.736;2023-12-29T10:21:06;11.20;99.90
12268;DHT22;6196;48.398;11.736;2023-12-29T10:23:50;11.40;99.90
12268;DHT22;6196;48.398;11.736;2023-12-29T10:26:20;11.40;99.90
12268;DHT22;6196;48.398;11.736;2023-12-29T10:28:47;11.50;99.90
12268;DHT22;6196;48.398;11.736;2023-12-29T10:31:15;11.50;99.90
12268;DHT22;6196;48.398;11.736;2023-12-29T10:33:43;11.60;99.90
12268;DHT22;6196;48.398;11.736;2023-12-29T10:36:10;11.80;99.90
12268;DHT22;6196;48.398;11.736;2023-12-29T10:38:39;11.90;99.90
12268;DHT22;6196;48.398;11.736;2023-12-29T10:41:16;12.00;99.90
12268;DHT22;6196;48.398;11.736;2023-12-29T10:43:47;12.00;99.90
12268;DHT22;6196;48.398;11.736;2023-12-29T10:46:18;12.10;99.90
12268;DHT22;6196;48.398;11.736;2023-12-29T10:48:46;12.20;99.90
12268;DHT22;6196;48.398;11.736;2023-12-29T10:51:13;12.10;99.90
12268;DHT22;6196;48.398;11.736;2023-12-29T10:53:40;11.90;99.90
12268;DHT22;6196;48.398;11.736;2023-12-29T10:56:18;12.20;99.90
12268;DHT22;6196;48.398;11.736;2023-12-29T10:59:02;12.70;99.90
12268;DHT22;6196;48.398;11.736;2023-12-29T11:01:34;13.20;99.90
12268;DHT22;6196;48.398;11.736;2023-12-29T11:04:06;13.20;99.90
12268;DHT22;6196;48.398;11.736;2023-12-29T11:06:40;13.10;99.90
12268;DHT22;6196;48.398;11.736;2023-12-29T11:09:10;12.90;99.90
12268;DHT22;6196;48.398;11.736;2023-12-29T11:11:38;12.80;99.90
12268;DHT22;6196;48.398;11.736;2023-12-29T11:14:05;12.50;99.90
12268;DHT22;6196;48.398;11.736;2023-12-29T11:16:32;12.50;99.90
12268;DHT22;6196;48.398;11.736;2023-12-29T11:19:00;12.30;99.90
12268;DHT22;6196;48.398;11.736;2023-12-29T11:21:29;12.20;99.90
12268;DHT22;6196;48.398;11.736;2023-12-29T11:23:57;12.30;99.90
12268;DHT22;6196;48.398;11.736;2023-12-29T11:26:25;12.40;99.90
12268;DHT22;6196;48.398;11.736;2023-12-29T11:28:54;12.50;99.90
12268;DHT22;6196;48.398;11.736;2023-12-29T11:31:21;12.50;99.90
12268;DHT22;6196;48.398;11.736;2023-12-29T11:33:54;12.60;99.90
12268;DHT22;6196;48.398;11.736;2023-12-29T11:36:33;12.70;99.90
12268;DHT22;6196;48.398;11.736;2023-12-29T11:42:08;12.60;99.90
12268;DHT22;6196;48.398;11.736;2023-12-29T11:44:40;12.70;99.90
12268;DHT22;6196;48.398;11.736;2023-12-29T11:47:36;12.80;99.90
12268;DHT22;6196;48.398;11.736;2023-12-29T11:50:05;12.90;99.90
12268;DHT22;6196;48.398;11.736;2023-12-29T11:52:37;13.00;99.90
12268;DHT22;6196;48.398;11.736;2023-12-29T11:55:10;13.10;99.90
12268;DHT22;6196;48.398;11.736;2023-12-29T11:57:41;13.30;99.90
12268;DHT22;6196;48.398;11.736;2023-12-29T12:00:08;13.50;99.90
12268;DHT22;6196;48.398;11.736;2023-12-29T12:02:36;13.30;99.90
12268;DHT22;6196;48.398;11.736;2023-12-29T12:05:03;13.30;99.90
12268;DHT22;6196;48.398;11.736;2023-12-29T12:12:50;12.90;99.90
12268;DHT22;6196;48.398;11.736;2023-12-29T12:17:56;13.40;99.90
12268;DHT22;6196;48.398;11.736;2023-12-29T12:20:24;13.50;99.90
12268;DHT22;6196;48.398;11.736;2023-12-29T12:23:00;13.50;99.90
12268;DHT22;6196;48.398;11.736;2023-12-29T12:25:30;13.80;99.90
12268;DHT22;6196;48.398;11.736;2023-12-29T12:28:05;14.00;99.90
12268;DHT22;6196;48.398;11.736;2023-12-29T12:30:36;14.00;99.90
12268;DHT22;6196;48.398;11.736;2023-12-29T12:33:04;14.10;99.90
12268;DHT22;6196;48.398;11.736;2023-12-29T12:35:32;13.60;99.90
12268;DHT22;6196;48.398;11.736;2023-12-29T12:38:16;13.50;99.90
12268;DHT22;6196;48.398;11.736;2023-12-29T12:40:51;13.60;99.90
12268;DHT22;6196;48.398;11.736;2023-12-29T12:43:18;13.80;99.90
12268;DHT22;6196;48.398;11.736;2023-12-29T12:45:53;13.60;99.90
12268;DHT22;6196;48.398;11.736;2023-12-29T12:48:33;13.10;99.90
12268;DHT22;6196;48.398;11.736;2023-12-29T12:51:10;12.70;99.90
12268;DHT22;6196;48.398;11.736;2023-12-29T12:53:41;12.60;99.90
12268;DHT22;6196;48.398;11.736;2023-12-29T12:56:11;12.50;99.90
12268;DHT22;6196;48.398;11.736;2023-12-29T12:58:38;12.20;99.90
12268;DHT22;6196;48.398;11.736;2023-12-29T13:01:05;12.10;99.90
12268;DHT22;6196;48.398;11.736;2023-12-29T13:03:33;11.90;99.90
12268;DHT22;6196;48.398;11.736;2023-12-29T13:06:00;12.00;99.90
12268;DHT22;6196;48.398;11.736;2023-12-29T13:08:28;11.90;99.90
12268;DHT22;6196;48.398;11.736;2023-12-29T13:11:04;12.00;99.90
12268;DHT22;6196;48.398;11.736;2023-12-29T13:13:36;12.00;99.90
12268;DHT22;6196;48.398;11.736;2023-12-29T13:16:04;11.70;99.90
12268;DHT22;6196;48.398;11.736;2023-12-29T13:18:32;11.70;99.90
12268;DHT22;6196;48.398;11.736;2023-12-29T13:21:03;11.70;99.90
12268;DHT22;6196;48.398;11.736;2023-12-29T13:23:31;11.60;99.90
12268;DHT22;6196;48.398;11.736;2023-12-29T13:26:01;11.60;99.90
12268;DHT22;6196;48.398;11.736;2023-12-29T13:28:31;11.80;99.90
12268;DHT22;6196;48.398;11.736;2023-12-29T13:31:03;11.60;99.90
12268;DHT22;6196;48.398;11.736;2023-12-29T13:36:47;11.70;99.90
12268;DHT22;6196;48.398;11.736;2023-12-29T13:39:36;11.60;99.90
12268;DHT22;6196;48.398;11.736;2023-12-29T13:42:07;11.50;99.90
12268;DHT22;6196;48.398;11.736;2023-12-29T13:44:36;11.50;99.90
12268;DHT22;6196;48.398;11.736;2023-12-29T13:47:05;11.50;99.90
12268;DHT22;6196;48.398;11.736;2023-12-29T13:49:33;11.50;99.90
12268;DHT22;6196;48.398;11.736;2023-12-29T13:52:03;11.50;99.90
12268;DHT22;6196;48.398;11.736;2023-12-29T13:54:40;11.50;99.90
12268;DHT22;6196;48.398;11.736;2023-12-29T13:57:10;11.60;99.90
12268;DHT22;6196;48.398;11.736;2023-12-29T13:59:38;11.50;99.90
12268;DHT22;6196;48.398;11.736;2023-12-29T14:02:28;11.40;99.90
12268;DHT22;6196;48.398;11.736;2023-12-29T14:05:23;11.30;99.90
12268;DHT22;6196;48.398;11.736;2023-12-29T14:08:16;11.30;99.90
12268;DHT22;6196;48.398;11.736;2023-12-29T14:10:46;11.20;99.90
12268;DHT22;6196;48.398;11.736;2023-12-29T14:13:15;11.30;99.90
12268;DHT22;6196;48.398;11.736;2023-12-29T14:15:43;11.00;99.90
12268;DHT22;6196;48.398;11.736;2023-12-29T14:21:00;11.00;99.90
12268;DHT22;6196;48.398;11.736;2023-12-29T14:23:27;11.00;99.90
12268;DHT22;6196;48.398;11.736;2023-12-29T14:26:02;10.90;99.90
12268;DHT22;6196;48.398;11.736;2023-12-29T14:28:29;10.90;99.90
12268;DHT22;6196;48.398;11.736;2023-12-29T14:31:03;10.90;99.90
12268;DHT22;6196;48.398;11.736;2023-12-29T14:33:30;10.80;99.90
12268;DHT22;6196;48.398;11.736;2023-12-29T14:35:57;10.80;99.90
12268;DHT22;6196;48.398;11.736;2023-12-29T14:38:24;10.70;99.90
12268;DHT22;6196;48.398;11.736;2023-12-29T14:40:51;10.60;99.90
12268;DHT22;6196;48.398;11.736;2023-12-29T14:43:18;10.60;99.90
12268;DHT22;6196;48.398;11.736;2023-12-29T14:45:45;10.70;99.90
12268;DHT22;6196;48.398;11.736;2023-12-29T14:48:12;10.70;99.90
12268;DHT22;6196;48.398;11.736;2023-12-29T14:50:40;10.60;99.90
12268;DHT22;6196;48.398;11.736;2023-12-29T14:53:11;10.50;99.90
12268;DHT22;6196;48.398;11.736;2023-12-29T14:55:38;10.50;99.90
12268;DHT22;6196;48.398;11.736;2023-12-29T14:58:05;10.40;99.90
12268;DHT22;6196;48.398;11.736;2023-12-29T15:00:32;10.40;99.90
12268;DHT22;6196;48.398;11.736;2023-12-29T15:02:59;10.40;99.90
12268;DHT22;6196;48.398;11.736;2023-12-29T15:05:26;10.30;99.90
12268;DHT22;6196;48.398;11.736;2023-12-29T15:07:53;10.20;99.90
12268;DHT22;6196;48.398;11.736;2023-12-29T15:10:20;10.30;99.90
12268;DHT22;6196;48.398;11.736;2023-12-29T15:12:47;10.20;99.90
12268;DHT22;6196;48.398;11.736;2023-12-29T15:15:14;10.20;99.90
12268;DHT22;6196;48.398;11.736;2023-12-29T15:17:41;10.10;99.90
12268;DHT22;6196;48.398;11.736;2023-12-29T15:20:09;10.00;99.90
12268;DHT22;6196;48.398;11.736;2023-12-29T15:22:37;10.00;99.90
12268;DHT22;6196;48.398;11.736;2023-12-29T15:25:04;9.90;99.90
12268;DHT22;6196;48.398;11.736;2023-12-29T15:27:33;9.90;99.90
12268;DHT22;6196;48.398;11.736;2023-12-29T15:30:00;9.80;99.90
12268;DHT22;6196;48.398;11.736;2023-12-29T15:32:27;9.90;99.90
12268;DHT22;6196;48.398;11.736;2023-12-29T15:34:54;9.90;99.90
12268;DHT22;6196;48.398;11.736;2023-12-29T15:37:21;9.80;99.90
12268;DHT22;6196;48.398;11.736;2023-12-29T15:39:48;9.70;99.90
12268;DHT22;6196;48.398;11.736;2023-12-29T15:42:15;9.70;99.90
12268;DHT22;6196;48.398;11.736;2023-12-29T15:44:42;9.70;99.90
12268;DHT22;6196;48.398;11.736;2023-12-29T15:47:09;9.60;99.90
12268;DHT22;6196;48.398;11.736;2023-12-29T15:49:39;9.60;99.90
12268;DHT22;6196;48.398;11.736;2023-12-29T15:52:06;9.60;99.90
12268;DHT22;6196;48.398;11.736;2023-12-29T15:54:33;9.50;99.90
12268;DHT22;6196;48.398;11.736;2023-12-29T15:57:00;9.50;99.90
12268;DHT22;6196;48.398;11.736;2023-12-29T15:59:29;9.40;99.90
12268;DHT22;6196;48.398;11.736;2023-12-29T16:01:56;9.40;99.90
12268;DHT22;6196;48.398;11.736;2023-12-29T16:04:23;9.40;99.90
12268;DHT22;6196;48.398;11.736;2023-12-29T16:06:50;9.40;99.90
12268;DHT22;6196;48.398;11.736;2023-12-29T16:09:17;9.20;99.90
12268;DHT22;6196;48.398;11.736;2023-12-29T16:11:44;9.20;99.90